sensor_id;sensor_type;location;lat;lon;timestamp;pressure;altitude;pressure_sealevel;temperature;humidity
51249;BME280;39642;47.556;18.728;2023-03-19T00:01:32;99945.63;;;20.71;26.10
51249;BME280;39642;47.556;18.728;2023-03-19T00:03:58;99940.31;;;20.71;26.12
51249;BME280;39642;47.556;18.728;2023-03-19T00:06:24;99941.22;;;20.72;26.23
51249;BME280;39642;47.556;18.728;2023-03-19T00:08:50;99936.75;;;20.72;26.13
51249;BME280;39642;47.556;18.728;2023-03-19T00:11:16;99925.34;;;20.72;26.10
51249;BME280;39642;47.556;18.728;2023-03-19T00:13:41;99926.25;;;20.71;26.17
51249;BME280;39642;47.556;18.728;2023-03-19T00:16:07;99928.81;;;20.72;26.16
51249;BME280;39642;47.556;18.728;2023-03-19T00:18:33;99926.19;;;20.72;26.21
51249;BME280;39642;47.556;18.728;2023-03-19T00:20:59;99920.88;;;20.72;26.02
51249;BME280;39642;47.556;18.728;2023-03-19T00:23:26;99922.69;;;20.72;26.13
51249;BME280;39642;47.556;18.728;2023-03-19T00:25:53;99924.44;;;20.71;26.14
51249;BME280;39642;47.556;18.728;2023-03-19T00:28:19;99920.97;;;20.71;26.11
51249;BME280;39642;47.556;18.728;2023-03-19T00:30:45;99916.63;;;20.70;26.38
51249;BME280;39642;47.556;18.728;2023-03-19T00:33:11;99912.19;;;20.70;26.16
51249;BME280;39642;47.556;18.728;2023-03-19T00:35:40;99906.88;;;20.70;26.00
51249;BME280;39642;47.556;18.728;2023-03-19T00:38:06;99904.31;;;20.69;26.08
51249;BME280;39642;47.556;18.728;2023-03-19T00:40:32;99899.12;;;20.67;25.95
51249;BME280;39642;47.556;18.728;2023-03-19T00:42:58;99897.41;;;20.66;26.05
51249;BME280;39642;47.556;18.728;2023-03-19T00:45:24;99900.91;;;20.67;26.02
51249;BME280;39642;47.556;18.728;2023-03-19T00:47:50;99908.84;;;20.67;25.98
51249;BME280;39642;47.556;18.728;2023-03-19T00:50:16;99905.34;;;20.66;26.03
51249;BME280;39642;47.556;18.728;2023-03-19T00:52:42;99900.91;;;20.67;26.12
51249;BME280;39642;47.556;18.728;2023-03-19T00:55:08;99907.91;;;20.68;26.08
51249;BME280;39642;47.556;18.728;2023-03-19T00:57:34;99907.91;;;20.68;26.02
51249;BME280;39642;47.556;18.728;2023-03-19T01:00:00;99909.59;;;20.69;26.02
51249;BME280;39642;47.556;18.728;2023-03-19T01:02:26;99908.75;;;20.68;25.96
51249;BME280;39642;47.556;18.728;2023-03-19T01:04:52;99909.59;;;20.69;25.93
51249;BME280;39642;47.556;18.728;2023-03-19T01:07:18;99910.50;;;20.69;25.93
51249;BME280;39642;47.556;18.728;2023-03-19T01:09:43;99904.31;;;20.69;25.94
51249;BME280;39642;47.556;18.728;2023-03-19T01:12:09;99917.47;;;20.70;25.94
51249;BME280;39642;47.556;18.728;2023-03-19T01:14:35;99919.16;;;20.71;25.95
51249;BME280;39642;47.556;18.728;2023-03-19T01:17:01;99920.13;;;20.70;25.86
51249;BME280;39642;47.556;18.728;2023-03-19T01:19:28;99908.56;;;20.71;25.89
51249;BME280;39642;47.556;18.728;2023-03-19T01:21:54;99907.72;;;20.71;25.86
51249;BME280;39642;47.556;18.728;2023-03-19T01:24:20;99907.72;;;20.71;25.92
51249;BME280;39642;47.556;18.728;2023-03-19T01:26:46;99908.56;;;20.71;25.96
51249;BME280;39642;47.556;18.728;2023-03-19T01:29:12;99903.28;;;20.71;25.92
51249;BME280;39642;47.556;18.728;2023-03-19T01:31:38;99906.81;;;20.72;25.95
51249;BME280;39642;47.556;18.728;2023-03-19T01:34:04;99903.41;;;20.70;25.87
51249;BME280;39642;47.556;18.728;2023-03-19T01:36:31;99898.94;;;20.70;25.94
51249;BME280;39642;47.556;18.728;2023-03-19T01:38:57;99901.59;;;20.70;25.93
51249;BME280;39642;47.556;18.728;2023-03-19T01:41:25;99901.59;;;20.70;25.94
51249;BME280;39642;47.556;18.728;2023-03-19T01:43:51;99899.91;;;20.69;25.86
51249;BME280;39642;47.556;18.728;2023-03-19T01:46:26;99909.59;;;20.69;26.01
51249;BME280;39642;47.556;18.728;2023-03-19T01:48:59;99915.78;;;20.69;25.87
51249;BME280;39642;47.556;18.728;2023-03-19T01:51:28;99907.91;;;20.68;25.80
51249;BME280;39642;47.556;18.728;2023-03-19T01:53:58;99895.53;;;20.68;25.88
51249;BME280;39642;47.556;18.728;2023-03-19T01:56:31;99897.34;;;20.68;25.79
51249;BME280;39642;47.556;18.728;2023-03-19T01:59:02;99893.91;;;20.66;25.82
51249;BME280;39642;47.556;18.728;2023-03-19T02:01:32;99891.19;;;20.67;25.82
51249;BME280;39642;47.556;18.728;2023-03-19T02:04:02;99892.97;;;20.67;25.87
51249;BME280;39642;47.556;18.728;2023-03-19T02:06:28;99885.03;;;20.67;25.88
51249;BME280;39642;47.556;18.728;2023-03-19T02:08:55;99884.94;;;20.68;25.75
51249;BME280;39642;47.556;18.728;2023-03-19T02:11:23;99878.81;;;20.68;25.90
51249;BME280;39642;47.556;18.728;2023-03-19T02:13:49;99879.66;;;20.68;25.67
51249;BME280;39642;47.556;18.728;2023-03-19T02:16:15;99881.38;;;20.69;25.67
51249;BME280;39642;47.556;18.728;2023-03-19T02:18:41;99872.56;;;20.69;25.95
51249;BME280;39642;47.556;18.728;2023-03-19T02:21:10;99875.22;;;20.69;25.73
51249;BME280;39642;47.556;18.728;2023-03-19T02:23:44;99883.06;;;20.70;25.77
51249;BME280;39642;47.556;18.728;2023-03-19T02:26:16;99882.22;;;20.70;25.67
51249;BME280;39642;47.556;18.728;2023-03-19T02:28:45;99879.59;;;20.70;25.79
51249;BME280;39642;47.556;18.728;2023-03-19T02:31:12;99882.22;;;20.70;25.66
51249;BME280;39642;47.556;18.728;2023-03-19T02:33:38;99884.88;;;20.70;25.74
51249;BME280;39642;47.556;18.728;2023-03-19T02:36:09;99880.44;;;20.70;25.78
51249;BME280;39642;47.556;18.728;2023-03-19T02:38:35;99874.28;;;20.70;25.71
51249;BME280;39642;47.556;18.728;2023-03-19T02:41:06;99877.78;;;20.70;25.73
51249;BME280;39642;47.556;18.728;2023-03-19T02:43:35;99876.94;;;20.70;25.79
51249;BME280;39642;47.556;18.728;2023-03-19T02:46:03;99872.56;;;20.69;25.59
51249;BME280;39642;47.556;18.728;2023-03-19T02:48:30;99877.00;;;20.68;25.75
51249;BME280;39642;47.556;18.728;2023-03-19T02:50:57;99879.66;;;20.68;25.94
51249;BME280;39642;47.556;18.728;2023-03-19T02:53:23;99876.09;;;20.69;25.70
51249;BME280;39642;47.556;18.728;2023-03-19T02:55:50;99883.25;;;20.67;25.65
51249;BME280;39642;47.556;18.728;2023-03-19T02:58:15;99881.53;;;20.66;25.75
51249;BME280;39642;47.556;18.728;2023-03-19T03:00:41;99885.91;;;20.67;25.89
51249;BME280;39642;47.556;18.728;2023-03-19T03:03:07;99888.56;;;20.67;25.73
51249;BME280;39642;47.556;18.728;2023-03-19T03:05:33;99886.81;;;20.66;25.69
51249;BME280;39642;47.556;18.728;2023-03-19T03:07:59;99878.87;;;20.66;25.65
51249;BME280;39642;47.556;18.728;2023-03-19T03:10:25;99878.87;;;20.66;25.69
51249;BME280;39642;47.556;18.728;2023-03-19T03:12:51;99879.75;;;20.67;25.57
51249;BME280;39642;47.556;18.728;2023-03-19T03:15:17;99880.63;;;20.67;25.66
51249;BME280;39642;47.556;18.728;2023-03-19T03:17:44;99885.91;;;20.67;25.69
51249;BME280;39642;47.556;18.728;2023-03-19T03:20:13;99882.31;;;20.68;25.61
51249;BME280;39642;47.556;18.728;2023-03-19T03:22:40;99882.31;;;20.68;25.53
51249;BME280;39642;47.556;18.728;2023-03-19T03:25:06;99878.81;;;20.68;25.51
51249;BME280;39642;47.556;18.728;2023-03-19T03:27:32;99871.72;;;20.68;25.49
51249;BME280;39642;47.556;18.728;2023-03-19T03:29:58;99873.53;;;20.68;25.51
51249;BME280;39642;47.556;18.728;2023-03-19T03:32:24;99872.69;;;20.67;25.49
51249;BME280;39642;47.556;18.728;2023-03-19T03:34:50;99882.31;;;20.68;25.50
51249;BME280;39642;47.556;18.728;2023-03-19T03:37:16;99881.47;;;20.68;25.55
51249;BME280;39642;47.556;18.728;2023-03-19T03:39:42;99880.50;;;20.69;25.49
51249;BME280;39642;47.556;18.728;2023-03-19T03:42:08;99871.72;;;20.68;25.67
51249;BME280;39642;47.556;18.728;2023-03-19T03:44:34;99875.22;;;20.69;25.60
51249;BME280;39642;47.556;18.728;2023-03-19T03:47:00;99876.16;;;20.68;25.46
51249;BME280;39642;47.556;18.728;2023-03-19T03:49:27;99881.53;;;20.66;25.53
51249;BME280;39642;47.556;18.728;2023-03-19T03:51:53;99877.19;;;20.65;25.43
51249;BME280;39642;47.556;18.728;2023-03-19T03:54:19;99881.53;;;20.66;25.46
51249;BME280;39642;47.556;18.728;2023-03-19T03:56:46;99879.84;;;20.65;25.48
51249;BME280;39642;47.556;18.728;2023-03-19T03:59:11;99872.75;;;20.66;25.44
51249;BME280;39642;47.556;18.728;2023-03-19T04:01:37;99874.56;;;20.65;25.41
51249;BME280;39642;47.556;18.728;2023-03-19T04:04:03;99859.59;;;20.64;25.51
51249;BME280;39642;47.556;18.728;2023-03-19T04:06:29;99860.44;;;20.65;25.41
51249;BME280;39642;47.556;18.728;2023-03-19T04:08:55;99865.75;;;20.65;25.38
51249;BME280;39642;47.556;18.728;2023-03-19T04:11:21;99869.25;;;20.65;25.41
51249;BME280;39642;47.556;18.728;2023-03-19T04:13:48;99865.75;;;20.65;25.41
51249;BME280;39642;47.556;18.728;2023-03-19T04:16:13;99861.31;;;20.65;25.56
51249;BME280;39642;47.556;18.728;2023-03-19T04:18:40;99863.97;;;20.65;25.30
51249;BME280;39642;47.556;18.728;2023-03-19T04:21:06;99867.47;;;20.66;25.34
51249;BME280;39642;47.556;18.728;2023-03-19T04:23:32;99863.97;;;20.65;25.43
51249;BME280;39642;47.556;18.728;2023-03-19T04:25:59;99866.63;;;20.65;25.38
51249;BME280;39642;47.556;18.728;2023-03-19T04:28:26;99862.16;;;20.66;25.29
51249;BME280;39642;47.556;18.728;2023-03-19T04:31:00;99863.03;;;20.66;25.28
51249;BME280;39642;47.556;18.728;2023-03-19T04:33:26;99870.09;;;20.66;25.31
51249;BME280;39642;47.556;18.728;2023-03-19T04:35:52;99867.38;;;20.67;25.23
51249;BME280;39642;47.556;18.728;2023-03-19T04:38:20;99868.31;;;20.66;25.28
51249;BME280;39642;47.556;18.728;2023-03-19T04:40:46;99870.03;;;20.67;25.33
51249;BME280;39642;47.556;18.728;2023-03-19T04:43:13;99873.53;;;20.68;25.30
51249;BME280;39642;47.556;18.728;2023-03-19T04:45:39;99878.81;;;20.68;25.36
51249;BME280;39642;47.556;18.728;2023-03-19T04:48:05;99873.53;;;20.68;25.43
51249;BME280;39642;47.556;18.728;2023-03-19T04:50:31;99877.97;;;20.67;25.30
51249;BME280;39642;47.556;18.728;2023-03-19T04:52:57;99872.56;;;20.69;25.28
51249;BME280;39642;47.556;18.728;2023-03-19T04:55:23;99887.59;;;20.68;25.32
51249;BME280;39642;47.556;18.728;2023-03-19T04:57:49;99879.75;;;20.67;25.33
51249;BME280;39642;47.556;18.728;2023-03-19T05:00:15;99887.69;;;20.67;25.22
51249;BME280;39642;47.556;18.728;2023-03-19T05:02:42;99880.69;;;20.66;25.24
51249;BME280;39642;47.556;18.728;2023-03-19T05:05:09;99879.75;;;20.67;25.35
51249;BME280;39642;47.556;18.728;2023-03-19T05:07:40;99884.19;;;20.66;25.25
51249;BME280;39642;47.556;18.728;2023-03-19T05:10:07;99885.03;;;20.67;25.31
51249;BME280;39642;47.556;18.728;2023-03-19T05:12:33;99892.13;;;20.66;25.29
51249;BME280;39642;47.556;18.728;2023-03-19T05:15:00;99899.22;;;20.66;25.38
51249;BME280;39642;47.556;18.728;2023-03-19T05:17:26;99892.19;;;20.65;25.41
51249;BME280;39642;47.556;18.728;2023-03-19T05:19:52;99888.63;;;20.66;25.19
51249;BME280;39642;47.556;18.728;2023-03-19T05:22:18;99894.78;;;20.66;25.30
51249;BME280;39642;47.556;18.728;2023-03-19T05:24:45;99895.72;;;20.65;25.18
51249;BME280;39642;47.556;18.728;2023-03-19T05:27:11;99895.72;;;20.65;25.12
51249;BME280;39642;47.556;18.728;2023-03-19T05:29:37;99904.50;;;20.66;25.14
51249;BME280;39642;47.556;18.728;2023-03-19T05:32:03;99906.31;;;20.65;25.48
51249;BME280;39642;47.556;18.728;2023-03-19T05:34:30;99908.94;;;20.65;25.25
51249;BME280;39642;47.556;18.728;2023-03-19T05:36:56;99896.56;;;20.66;25.15
51249;BME280;39642;47.556;18.728;2023-03-19T05:39:22;99897.41;;;20.66;25.18
51249;BME280;39642;47.556;18.728;2023-03-19T05:41:48;99894.78;;;20.66;25.17
51249;BME280;39642;47.556;18.728;2023-03-19T05:44:15;99883.34;;;20.66;25.25
51249;BME280;39642;47.556;18.728;2023-03-19T05:46:41;99887.69;;;20.67;25.15
51249;BME280;39642;47.556;18.728;2023-03-19T05:49:08;99895.53;;;20.68;25.11
51249;BME280;39642;47.556;18.728;2023-03-19T05:51:34;99908.75;;;20.68;25.14
51249;BME280;39642;47.556;18.728;2023-03-19T05:54:00;99899.03;;;20.69;25.13
51249;BME280;39642;47.556;18.728;2023-03-19T05:56:26;99900.81;;;20.68;25.13
51249;BME280;39642;47.556;18.728;2023-03-19T05:58:52;99898.19;;;20.68;25.09
51249;BME280;39642;47.556;18.728;2023-03-19T06:01:18;99899.97;;;20.68;25.10
51249;BME280;39642;47.556;18.728;2023-03-19T06:03:44;99905.19;;;20.69;25.31
51249;BME280;39642;47.556;18.728;2023-03-19T06:06:10;99906.03;;;20.70;25.46
51249;BME280;39642;47.556;18.728;2023-03-19T06:08:36;99900.75;;;20.70;25.35
51249;BME280;39642;47.556;18.728;2023-03-19T06:11:03;99914.81;;;20.70;25.28
51249;BME280;39642;47.556;18.728;2023-03-19T06:13:29;99915.66;;;20.71;25.14
51249;BME280;39642;47.556;18.728;2023-03-19T06:15:55;99913.03;;;20.71;25.17
51249;BME280;39642;47.556;18.728;2023-03-19T06:18:21;99916.50;;;20.71;25.16
51249;BME280;39642;47.556;18.728;2023-03-19T06:20:47;99924.44;;;20.71;25.19
51249;BME280;39642;47.556;18.728;2023-03-19T06:23:13;99927.88;;;20.73;25.17
51249;BME280;39642;47.556;18.728;2023-03-19T06:25:39;99925.22;;;20.73;25.23
51249;BME280;39642;47.556;18.728;2023-03-19T06:28:05;99928.75;;;20.74;25.26
51249;BME280;39642;47.556;18.728;2023-03-19T06:30:31;99934.88;;;20.74;25.15
51249;BME280;39642;47.556;18.728;2023-03-19T06:32:57;99928.75;;;20.74;25.35
51249;BME280;39642;47.556;18.728;2023-03-19T06:35:23;99933.94;;;20.75;25.19
51249;BME280;39642;47.556;18.728;2023-03-19T06:37:49;99934.78;;;20.76;25.40
51249;BME280;39642;47.556;18.728;2023-03-19T06:40:15;99943.59;;;20.76;25.33
51249;BME280;39642;47.556;18.728;2023-03-19T06:42:45;99939.97;;;20.77;25.17
51249;BME280;39642;47.556;18.728;2023-03-19T06:45:12;99939.16;;;20.77;25.49
51249;BME280;39642;47.556;18.728;2023-03-19T06:47:41;99936.41;;;20.78;25.57
51249;BME280;39642;47.556;18.728;2023-03-19T06:50:09;99932.81;;;20.79;25.67
51249;BME280;39642;47.556;18.728;2023-03-19T06:52:35;99930.94;;;20.82;25.69
51249;BME280;39642;47.556;18.728;2023-03-19T06:55:01;99933.59;;;20.82;25.35
51249;BME280;39642;47.556;18.728;2023-03-19T06:57:27;99919.41;;;20.83;25.49
51249;BME280;39642;47.556;18.728;2023-03-19T06:59:53;99914.97;;;20.83;25.18
51249;BME280;39642;47.556;18.728;2023-03-19T07:02:19;99916.66;;;20.84;25.37
51249;BME280;39642;47.556;18.728;2023-03-19T07:04:45;99916.75;;;20.83;25.56
51249;BME280;39642;47.556;18.728;2023-03-19T07:07:11;99916.75;;;20.83;25.33
51249;BME280;39642;47.556;18.728;2023-03-19T07:09:37;99923.75;;;20.84;25.39
51249;BME280;39642;47.556;18.728;2023-03-19T07:12:03;99929.91;;;20.84;25.66
51249;BME280;39642;47.556;18.728;2023-03-19T07:14:29;99937.75;;;20.86;25.51
51249;BME280;39642;47.556;18.728;2023-03-19T07:16:55;99939.47;;;20.87;25.74
51249;BME280;39642;47.556;18.728;2023-03-19T07:19:21;99935.00;;;20.87;25.38
51249;BME280;39642;47.556;18.728;2023-03-19T07:21:47;99930.59;;;20.88;25.57
51249;BME280;39642;47.556;18.728;2023-03-19T07:24:13;99929.62;;;20.89;25.45
51249;BME280;39642;47.556;18.728;2023-03-19T07:26:39;99942.88;;;20.89;25.37
51249;BME280;39642;47.556;18.728;2023-03-19T07:29:07;99939.31;;;20.90;25.24
51249;BME280;39642;47.556;18.728;2023-03-19T07:31:33;99942.78;;;20.90;25.10
51249;BME280;39642;47.556;18.728;2023-03-19T07:33:59;99932.19;;;20.90;25.01
51249;BME280;39642;47.556;18.728;2023-03-19T07:36:25;99944.47;;;20.91;25.64
51249;BME280;39642;47.556;18.728;2023-03-19T07:38:51;99936.53;;;20.91;24.96
51249;BME280;39642;47.556;18.728;2023-03-19T07:41:17;99928.59;;;20.91;24.93
51249;BME280;39642;47.556;18.728;2023-03-19T07:43:43;99931.16;;;20.93;24.99
51249;BME280;39642;47.556;18.728;2023-03-19T07:46:09;99924.91;;;20.94;24.93
51249;BME280;39642;47.556;18.728;2023-03-19T07:48:34;99933.63;;;20.96;24.84
51249;BME280;39642;47.556;18.728;2023-03-19T07:51:00;99928.25;;;20.97;24.91
51249;BME280;39642;47.556;18.728;2023-03-19T07:53:26;99928.19;;;20.99;24.78
51249;BME280;39642;47.556;18.728;2023-03-19T07:55:52;99925.53;;;20.99;24.77
51249;BME280;39642;47.556;18.728;2023-03-19T07:58:18;99930.63;;;21.02;24.73
51249;BME280;39642;47.556;18.728;2023-03-19T08:00:44;99927.06;;;21.03;24.70
51249;BME280;39642;47.556;18.728;2023-03-19T08:03:10;99924.31;;;21.05;24.67
51249;BME280;39642;47.556;18.728;2023-03-19T08:05:36;99926.03;;;21.06;24.65
51249;BME280;39642;47.556;18.728;2023-03-19T08:08:02;99920.62;;;21.07;24.70
51249;BME280;39642;47.556;18.728;2023-03-19T08:10:28;99929.44;;;21.08;24.77
51249;BME280;39642;47.556;18.728;2023-03-19T08:12:54;99924.91;;;21.10;24.72
51249;BME280;39642;47.556;18.728;2023-03-19T08:15:19;99930.09;;;21.11;24.74
51249;BME280;39642;47.556;18.728;2023-03-19T08:17:46;99932.66;;;21.13;24.72
51249;BME280;39642;47.556;18.728;2023-03-19T08:20:13;99923.75;;;21.14;24.76
51249;BME280;39642;47.556;18.728;2023-03-19T08:22:41;99930.78;;;21.15;24.76
51249;BME280;39642;47.556;18.728;2023-03-19T08:25:08;99938.44;;;21.19;24.79
51249;BME280;39642;47.556;18.728;2023-03-19T08:27:35;99920.75;;;21.20;24.79
51249;BME280;39642;47.556;18.728;2023-03-19T08:30:04;99925.97;;;21.21;24.67
51249;BME280;39642;47.556;18.728;2023-03-19T08:32:30;99922.38;;;21.23;24.59
51249;BME280;39642;47.556;18.728;2023-03-19T08:34:56;99920.56;;;21.23;24.58
51249;BME280;39642;47.556;18.728;2023-03-19T08:37:22;99915.25;;;21.23;24.70
51249;BME280;39642;47.556;18.728;2023-03-19T08:39:51;99912.53;;;21.25;24.72
51249;BME280;39642;47.556;18.728;2023-03-19T08:42:20;99909.87;;;21.25;24.75
51249;BME280;39642;47.556;18.728;2023-03-19T08:44:47;99907.25;;;21.25;24.74
51249;BME280;39642;47.556;18.728;2023-03-19T08:47:14;99905.53;;;21.24;24.90
51249;BME280;39642;47.556;18.728;2023-03-19T08:49:40;99905.53;;;21.24;24.75
51249;BME280;39642;47.556;18.728;2023-03-19T08:52:06;99908.19;;;21.24;24.83
51249;BME280;39642;47.556;18.728;2023-03-19T08:54:32;99908.19;;;21.24;24.82
51249;BME280;39642;47.556;18.728;2023-03-19T08:56:59;99909.97;;;21.23;25.13
51249;BME280;39642;47.556;18.728;2023-03-19T08:59:26;99909.97;;;21.23;25.11
51249;BME280;39642;47.556;18.728;2023-03-19T09:01:52;99912.53;;;21.25;25.25
51249;BME280;39642;47.556;18.728;2023-03-19T09:04:19;99903.75;;;21.24;25.10
51249;BME280;39642;47.556;18.728;2023-03-19T09:06:47;99907.31;;;21.23;24.98
51249;BME280;39642;47.556;18.728;2023-03-19T09:09:21;99909.03;;;21.24;24.88
51249;BME280;39642;47.556;18.728;2023-03-19T09:11:48;99904.66;;;21.23;25.13
51249;BME280;39642;47.556;18.728;2023-03-19T09:14:14;99905.44;;;21.25;25.01
51249;BME280;39642;47.556;18.728;2023-03-19T09:16:42;99895.81;;;21.24;25.03
51249;BME280;39642;47.556;18.728;2023-03-19T09:19:08;99896.66;;;21.25;25.00
51249;BME280;39642;47.556;18.728;2023-03-19T09:21:35;99898.44;;;21.24;24.90
51249;BME280;39642;47.556;18.728;2023-03-19T09:24:02;99895.88;;;21.23;24.87
51249;BME280;39642;47.556;18.728;2023-03-19T09:26:28;99890.69;;;21.21;24.91
51249;BME280;39642;47.556;18.728;2023-03-19T09:28:54;99890.69;;;21.21;25.25
51249;BME280;39642;47.556;18.728;2023-03-19T09:31:20;99894.19;;;21.21;25.23
51249;BME280;39642;47.556;18.728;2023-03-19T09:33:46;99880.94;;;21.21;25.11
51249;BME280;39642;47.556;18.728;2023-03-19T09:36:12;99879.22;;;21.20;25.03
51249;BME280;39642;47.556;18.728;2023-03-19T09:38:38;99881.88;;;21.20;24.95
51249;BME280;39642;47.556;18.728;2023-03-19T09:41:09;99880.19;;;21.19;25.03
51249;BME280;39642;47.556;18.728;2023-03-19T09:44:10;99876.69;;;21.19;25.04
51249;BME280;39642;47.556;18.728;2023-03-19T09:46:44;99881.13;;;21.18;24.97
51249;BME280;39642;47.556;18.728;2023-03-19T09:49:21;99869.69;;;21.18;24.92
51249;BME280;39642;47.556;18.728;2023-03-19T09:51:51;99871.47;;;21.17;24.99
51249;BME280;39642;47.556;18.728;2023-03-19T09:56:55;99888.22;;;21.18;24.98
51249;BME280;39642;47.556;18.728;2023-03-19T09:59:22;99877.69;;;21.16;24.94
51249;BME280;39642;47.556;18.728;2023-03-19T10:01:54;99871.47;;;21.17;25.00
51249;BME280;39642;47.556;18.728;2023-03-19T10:04:42;99878.59;;;21.17;24.94
51249;BME280;39642;47.556;18.728;2023-03-19T10:12:55;99869.69;;;21.18;25.03
51249;BME280;39642;47.556;18.728;2023-03-19T10:15:27;99864.31;;;21.19;25.00
51249;BME280;39642;47.556;18.728;2023-03-19T10:17:57;99866.94;;;21.19;25.36
51249;BME280;39642;47.556;18.728;2023-03-19T10:23:43;99859.75;;;21.21;25.05
51249;BME280;39642;47.556;18.728;2023-03-19T10:26:14;99853.63;;;21.21;25.00
51249;BME280;39642;47.556;18.728;2023-03-19T10:28:43;99856.28;;;21.21;25.00
51249;BME280;39642;47.556;18.728;2023-03-19T10:31:28;99852.75;;;21.20;25.06
51249;BME280;39642;47.556;18.728;2023-03-19T10:34:30;99847.44;;;21.20;25.06
51249;BME280;39642;47.556;18.728;2023-03-19T10:37:02;99844.72;;;21.22;25.12
51249;BME280;39642;47.556;18.728;2023-03-19T10:39:35;99837.62;;;21.23;25.19
51249;BME280;39642;47.556;18.728;2023-03-19T10:44:50;99837.62;;;21.23;25.08
51249;BME280;39642;47.556;18.728;2023-03-19T10:47:18;99841.22;;;21.21;25.41
51249;BME280;39642;47.556;18.728;2023-03-19T10:49:45;99837.62;;;21.23;25.24
51249;BME280;39642;47.556;18.728;2023-03-19T10:52:29;99837.62;;;21.23;25.23
51249;BME280;39642;47.556;18.728;2023-03-19T10:55:11;99840.28;;;21.23;25.16
51249;BME280;39642;47.556;18.728;2023-03-19T10:57:41;99824.50;;;21.21;25.17
51249;BME280;39642;47.556;18.728;2023-03-19T11:00:17;99822.69;;;21.21;25.06
51249;BME280;39642;47.556;18.728;2023-03-19T11:02:47;99819.19;;;21.21;25.14
51249;BME280;39642;47.556;18.728;2023-03-19T11:07:39;99814.00;;;21.19;25.26
51249;BME280;39642;47.556;18.728;2023-03-19T11:10:15;99797.13;;;21.20;25.19
51249;BME280;39642;47.556;18.728;2023-03-19T11:12:46;99800.75;;;21.19;25.18
51249;BME280;39642;47.556;18.728;2023-03-19T11:15:23;99803.41;;;21.19;25.19
51249;BME280;39642;47.556;18.728;2023-03-19T11:17:59;99802.44;;;21.20;25.24
51249;BME280;39642;47.556;18.728;2023-03-19T11:20:35;99798.94;;;21.20;25.31
51249;BME280;39642;47.556;18.728;2023-03-19T11:23:06;99797.13;;;21.20;25.37
51249;BME280;39642;47.556;18.728;2023-03-19T11:25:45;99797.06;;;21.22;25.32
51249;BME280;39642;47.556;18.728;2023-03-19T11:28:14;99799.62;;;21.24;25.29
51249;BME280;39642;47.556;18.728;2023-03-19T11:31:16;99794.22;;;21.25;25.36
51249;BME280;39642;47.556;18.728;2023-03-19T11:39:22;99786.94;;;21.29;25.43
51249;BME280;39642;47.556;18.728;2023-03-19T11:42:02;99782.47;;;21.29;25.46
51249;BME280;39642;47.556;18.728;2023-03-19T11:47:28;99778.03;;;21.30;25.44
51249;BME280;39642;47.556;18.728;2023-03-19T11:55:34;99769.25;;;21.29;25.42
51249;BME280;39642;47.556;18.728;2023-03-19T11:58:28;99763.19;;;21.27;25.22
51249;BME280;39642;47.556;18.728;2023-03-19T12:01:17;99770.28;;;21.27;25.24
51249;BME280;39642;47.556;18.728;2023-03-19T12:09:41;99746.75;;;21.22;25.27
51249;BME280;39642;47.556;18.728;2023-03-19T12:12:33;99738.81;;;21.22;25.27
51249;BME280;39642;47.556;18.728;2023-03-19T12:20:19;99731.16;;;21.17;25.39
51249;BME280;39642;47.556;18.728;2023-03-19T12:25:40;99723.19;;;21.17;25.42
51249;BME280;39642;47.556;18.728;2023-03-19T12:28:16;99724.88;;;21.18;25.40
51249;BME280;39642;47.556;18.728;2023-03-19T12:30:48;99715.25;;;21.17;25.37
51249;BME280;39642;47.556;18.728;2023-03-19T12:35:59;99714.50;;;21.15;25.43
51249;BME280;39642;47.556;18.728;2023-03-19T12:38:40;99709.19;;;21.15;25.40
51249;BME280;39642;47.556;18.728;2023-03-19T12:41:19;99702.94;;;21.16;25.37
51249;BME280;39642;47.556;18.728;2023-03-19T12:49:16;99688.97;;;21.14;25.49
51249;BME280;39642;47.556;18.728;2023-03-19T12:51:47;99683.78;;;21.13;25.39
51249;BME280;39642;47.556;18.728;2023-03-19T12:54:20;99687.25;;;21.13;25.37
51249;BME280;39642;47.556;18.728;2023-03-19T12:56:59;99675.81;;;21.13;25.38
51249;BME280;39642;47.556;18.728;2023-03-19T12:59:34;99680.28;;;21.12;25.42
51249;BME280;39642;47.556;18.728;2023-03-19T13:02:13;99683.78;;;21.13;25.43
51249;BME280;39642;47.556;18.728;2023-03-19T13:04:50;99680.28;;;21.12;25.43
51249;BME280;39642;47.556;18.728;2023-03-19T13:07:30;99682.06;;;21.12;25.45
51249;BME280;39642;47.556;18.728;2023-03-19T13:10:10;99678.56;;;21.11;25.91
51249;BME280;39642;47.556;18.728;2023-03-19T13:12:37;99677.72;;;21.11;25.59
51249;BME280;39642;47.556;18.728;2023-03-19T13:15:12;99670.75;;;21.10;25.58
51249;BME280;39642;47.556;18.728;2023-03-19T13:20:38;99660.16;;;21.10;25.64
51249;BME280;39642;47.556;18.728;2023-03-19T13:23:19;99662.78;;;21.10;25.68
51249;BME280;39642;47.556;18.728;2023-03-19T13:25:47;99661.00;;;21.10;25.65
51249;BME280;39642;47.556;18.728;2023-03-19T13:28:29;99662.78;;;21.10;25.75
51249;BME280;39642;47.556;18.728;2023-03-19T13:31:19;99663.63;;;21.10;25.75
51249;BME280;39642;47.556;18.728;2023-03-19T13:33:54;99661.84;;;21.11;25.77
51249;BME280;39642;47.556;18.728;2023-03-19T13:36:26;99646.91;;;21.10;25.58
51249;BME280;39642;47.556;18.728;2023-03-19T13:38:54;99642.53;;;21.09;25.67
51249;BME280;39642;47.556;18.728;2023-03-19T13:46:50;99636.50;;;21.07;25.79
51249;BME280;39642;47.556;18.728;2023-03-19T13:51:54;99632.16;;;21.06;25.90
51249;BME280;39642;47.556;18.728;2023-03-19T13:54:32;99633.84;;;21.07;26.01
51249;BME280;39642;47.556;18.728;2023-03-19T13:59:28;99637.47;;;21.06;26.34
51249;BME280;39642;47.556;18.728;2023-03-19T14:01:56;99641.03;;;21.05;26.54
51249;BME280;39642;47.556;18.728;2023-03-19T14:04:33;99634.91;;;21.04;26.53